Time;durP1;ratioP1;P1;durP2;ratioP2;P2;SDS_P1;SDS_P2;PMS_P1;PMS_P2;Temp;Humidity;BMP_temperature;BMP_pressure;BME280_temperature;BME280_humidity;BME280_pressure;Samples;Min_cycle;Max_cycle;Signal;HPM_P1;HPM_P2
2022/11/23 00:01:28;;;;;;;52.83;29.88;;;;;;;3.28;71.30;97398.97;5050797;28;20028;-70
2022/11/23 00:03:59;;;;;;;60.28;29.25;;;;;;;3.26;71.89;97384.91;5049947;28;20021;-70
2022/11/23 00:06:25;;;;;;;77.32;33.03;;;;;;;3.28;71.39;97388.16;5050731;28;20025;-70
2022/11/23 00:08:52;;;;;;;119.88;45.47;;;;;;;3.27;71.56;97391.13;5049359;28;20028;-70
2022/11/23 00:11:20;;;;;;;117.28;46.92;;;;;;;3.29;71.43;97388.94;5049624;28;20108;-70
2022/11/23 00:13:45;;;;;;;93.57;40.05;;;;;;;3.29;71.98;97391.66;5049757;28;20025;-70
2022/11/23 00:16:14;;;;;;;91.13;39.72;;;;;;;3.27;71.39;97385.69;5050377;28;20037;-69
2022/11/23 00:18:40;;;;;;;93.88;39.83;;;;;;;3.24;71.16;97383.56;5049739;28;20489;-70
2022/11/23 00:21:11;;;;;;;92.18;40.40;;;;;;;3.22;71.72;97386.53;5050793;28;20021;-71
2022/11/23 00:23:36;;;;;;;67.57;33.03;;;;;;;3.20;72.04;97385.19;5049982;28;20024;-71
2022/11/23 00:26:03;;;;;;;55.28;29.00;;;;;;;3.17;71.39;97378.41;5048969;28;20547;-71
2022/11/23 00:28:28;;;;;;;52.58;27.77;;;;;;;3.17;71.82;97385.75;5047378;28;20183;-69
2022/11/23 00:30:54;;;;;;;56.88;30.80;;;;;;;3.12;71.94;97376.53;5049145;28;20556;-69
2022/11/23 00:33:19;;;;;;;52.58;28.67;;;;;;;3.12;72.30;97378.41;5048497;28;20021;-69
2022/11/23 00:35:44;;;;;;;53.08;27.40;;;;;;;3.10;72.24;97386.00;5049917;28;20040;-69
2022/11/23 00:38:10;;;;;;;49.38;27.10;;;;;;;3.09;71.50;97382.50;5048932;28;20171;-69
2022/11/23 00:40:36;;;;;;;52.20;27.00;;;;;;;3.08;72.06;97374.63;5048960;28;20028;-69
2022/11/23 00:43:01;;;;;;;49.15;26.42;;;;;;;3.06;72.07;97377.63;5047541;28;20489;-69
2022/11/23 00:45:27;;;;;;;49.30;26.48;;;;;;;3.06;71.68;97371.38;5048433;28;20021;-69
2022/11/23 00:47:52;;;;;;;50.28;27.50;;;;;;;3.02;71.46;97376.53;5048964;28;20036;-68
2022/11/23 00:50:18;;;;;;;49.00;26.73;;;;;;;2.99;71.93;97371.66;5049164;28;20047;-68
2022/11/23 00:52:43;;;;;;;53.90;27.30;;;;;;;2.96;71.79;97367.63;5049218;28;20024;-68
2022/11/23 00:55:08;;;;;;;63.00;31.15;;;;;;;2.95;72.19;97365.19;5048984;28;20332;-69
2022/11/23 00:57:34;;;;;;;67.03;30.67;;;;;;;2.92;71.19;97360.31;5049341;28;20760;-69
2022/11/23 01:00:00;;;;;;;84.22;38.30;;;;;;;2.86;71.35;97353.25;5048630;28;20102;-69
2022/11/23 01:02:25;;;;;;;82.50;36.50;;;;;;;2.84;71.51;97361.69;5049137;28;20028;-69
2022/11/23 01:04:50;;;;;;;65.32;30.40;;;;;;;2.81;71.30;97354.09;5048583;28;20025;-69
2022/11/23 01:07:16;;;;;;;55.53;27.02;;;;;;;2.78;71.86;97362.75;5047811;28;20032;-69
2022/11/23 01:09:41;;;;;;;53.53;26.88;;;;;;;2.75;71.45;97353.31;5048485;28;20107;-69
2022/11/23 01:12:06;;;;;;;47.90;25.27;;;;;;;2.73;71.64;97365.47;5048323;28;20033;-70
2022/11/23 01:14:32;;;;;;;49.88;26.48;;;;;;;2.70;71.62;97368.72;5049577;28;20107;-70
2022/11/23 01:16:57;;;;;;;51.45;26.50;;;;;;;2.66;71.43;97371.97;5049563;28;20029;-69
2022/11/23 01:19:24;;;;;;;50.15;26.55;;;;;;;2.61;71.34;97363.88;5048710;28;20040;-68
2022/11/23 01:21:49;;;;;;;46.45;25.50;;;;;;;2.61;71.93;97365.75;5049357;28;20247;-68
2022/11/23 01:24:19;;;;;;;46.10;25.45;;;;;;;2.60;71.39;97367.66;5049407;28;20029;-68
2022/11/23 01:26:45;;;;;;;48.30;25.02;;;;;;;2.60;71.36;97361.41;5048386;28;20489;-68
2022/11/23 01:29:11;;;;;;;41.63;24.10;;;;;;;2.61;71.95;97352.22;5048504;28;20056;-68
2022/11/23 01:31:38;;;;;;;45.03;24.55;;;;;;;2.60;71.94;97356.00;5049564;28;20055;-67
2022/11/23 01:34:03;;;;;;;42.67;23.80;;;;;;;2.59;71.40;97359.78;5049387;28;20449;-68
2022/11/23 01:36:33;;;;;;;44.22;24.58;;;;;;;2.58;72.21;97363.59;5050280;28;20112;-68
2022/11/23 01:39:00;;;;;;;48.40;24.85;;;;;;;2.57;71.49;97362.78;5047922;28;20033;-67
2022/11/23 01:41:29;;;;;;;42.75;24.98;;;;;;;2.56;71.28;97354.94;5049158;28;20505;-68
2022/11/23 01:43:55;;;;;;;45.67;24.70;;;;;;;2.53;72.26;97357.09;5049252;28;20064;-68
2022/11/23 01:46:21;;;;;;;48.00;25.83;;;;;;;2.56;71.67;97360.34;5046839;28;20086;-68
2022/11/23 01:49:02;;;;;;;47.90;24.35;;;;;;;2.55;71.68;97361.41;5049230;28;20033;-68
2022/11/23 01:51:32;;;;;;;52.90;25.98;;;;;;;2.55;72.04;97356.84;5048830;28;20048;-68
2022/11/23 01:54:03;;;;;;;45.55;25.13;;;;;;;2.55;71.34;97366.84;5047367;28;20377;-69
2022/11/23 01:56:34;;;;;;;47.50;24.77;;;;;;;2.56;72.32;97376.59;5049424;28;20100;-69
2022/11/23 01:59:03;;;;;;;46.20;25.13;;;;;;;2.55;71.63;97375.78;5048918;28;21334;-69
2022/11/23 02:01:29;;;;;;;49.97;27.23;;;;;;;2.52;71.34;97373.63;5048208;28;20090;-68
2022/11/23 02:03:59;;;;;;;45.13;24.70;;;;;;;2.51;71.55;97377.41;5047919;28;20025;-68
2022/11/23 02:06:24;;;;;;;45.38;24.58;;;;;;;2.53;71.92;97386.06;5049592;28;20398;-68
2022/11/23 02:08:51;;;;;;;45.42;24.63;;;;;;;2.53;71.53;97380.66;5048927;28;20052;-68
2022/11/23 02:11:16;;;;;;;47.75;24.63;;;;;;;2.51;71.54;97374.69;5049752;28;20039;-69
2022/11/23 02:13:44;;;;;;;47.58;24.70;;;;;;;2.50;71.73;97376.56;5048953;28;20026;-68
2022/11/23 02:16:10;;;;;;;46.10;24.27;;;;;;;2.51;72.09;97372.00;5049251;28;20108;-68
2022/11/23 02:18:38;;;;;;;52.45;26.15;;;;;;;2.49;72.55;97374.94;5048752;28;20112;-69
2022/11/23 02:21:05;;;;;;;54.95;27.15;;;;;;;2.49;72.45;97376.84;5051403;28;20128;-68
2022/11/23 02:23:39;;;;;;;60.45;29.00;;;;;;;2.51;72.31;97378.19;5051238;28;20048;-69
2022/11/23 02:26:13;;;;;;;57.75;27.35;;;;;;;2.50;71.56;97370.38;5052657;28;20044;-68
2022/11/23 02:28:43;;;;;;;71.20;30.52;;;;;;;2.50;72.23;97373.06;5052017;28;20067;-69
2022/11/23 02:31:08;;;;;;;61.67;29.05;;;;;;;2.50;72.11;97381.19;5053929;28;20484;-69
2022/11/23 02:33:39;;;;;;;62.10;29.88;;;;;;;2.49;71.65;97379.56;5051597;28;20032;-69
2022/11/23 02:36:42;;;;;;;60.78;29.52;;;;;;;2.47;71.84;97379.03;5050400;28;20448;-68
2022/11/23 02:39:36;;;;;;;68.93;30.92;;;;;;;2.45;72.21;97381.97;5051353;28;20033;-68
2022/11/23 02:42:02;;;;;;;70.60;33.20;;;;;;;2.45;72.02;97376.56;5045832;28;20052;-69
2022/11/23 02:44:39;;;;;;;68.15;30.45;;;;;;;2.42;71.77;97385.25;5051165;28;20068;-69
2022/11/23 02:47:06;;;;;;;66.57;29.52;;;;;;;2.41;71.63;97382.81;5052473;28;20029;-69
2022/11/23 02:49:33;;;;;;;62.85;31.70;;;;;;;2.40;71.86;97387.41;5050587;28;20056;-68
2022/11/23 02:51:59;;;;;;;62.05;30.20;;;;;;;2.37;71.63;97380.63;5049441;28;20074;-69
2022/11/23 02:54:24;;;;;;;56.45;28.40;;;;;;;2.36;71.98;97379.00;5051114;28;20033;-68
2022/11/23 02:56:49;;;;;;;53.95;27.10;;;;;;;2.35;71.76;97382.78;5052957;28;20176;-69
2022/11/23 02:59:15;;;;;;;57.72;28.25;;;;;;;2.31;72.31;97380.91;5050619;28;20024;-68
2022/11/23 03:01:40;;;;;;;43.97;25.00;;;;;;;2.30;71.74;97385.50;5051519;28;20434;-68
2022/11/23 03:04:06;;;;;;;51.42;25.05;;;;;;;2.26;72.20;97375.47;5049939;28;20021;-69
2022/11/23 03:06:32;;;;;;;46.85;25.25;;;;;;;2.24;72.00;97381.19;5051125;28;20025;-68
2022/11/23 03:08:57;;;;;;;46.05;24.35;;;;;;;2.22;71.58;97376.03;5050459;28;20078;-69
2022/11/23 03:11:23;;;;;;;47.80;24.92;;;;;;;2.21;71.86;97377.09;5053019;28;20508;-71
2022/11/23 03:13:48;;;;;;;55.88;27.67;;;;;;;2.20;71.89;97377.38;5048100;28;20808;-69
2022/11/23 03:16:15;;;;;;;56.47;28.83;;;;;;;2.19;71.96;97378.47;5049450;28;20052;-69
2022/11/23 03:18:40;;;;;;;65.30;29.70;;;;;;;2.19;71.79;97373.84;5050274;28;20389;-69
2022/11/23 03:21:08;;;;;;;65.22;31.23;;;;;;;2.15;71.85;97380.88;5051945;28;20078;-69
2022/11/23 03:23:35;;;;;;;61.92;31.83;;;;;;;2.13;71.84;97374.91;5050990;28;20489;-69
2022/11/23 03:26:01;;;;;;;58.75;28.52;;;;;;;2.11;71.60;97382.47;5050494;28;20029;-69
2022/11/23 03:28:26;;;;;;;58.75;27.88;;;;;;;2.10;71.77;97380.84;5051242;28;20021;-69
2022/11/23 03:30:52;;;;;;;50.85;26.55;;;;;;;2.07;71.79;97371.41;5052369;28;20075;-69
2022/11/23 03:33:18;;;;;;;51.65;26.73;;;;;;;2.06;72.27;97363.53;5051356;28;20468;-69
2022/11/23 03:35:43;;;;;;;55.92;26.33;;;;;;;2.03;72.29;97375.72;5056659;28;20499;-68
2022/11/23 03:38:09;;;;;;;67.30;28.92;;;;;;;2.02;72.48;97370.59;5054844;28;20023;-69
2022/11/23 03:40:34;;;;;;;68.93;28.40;;;;;;;1.99;71.64;97368.41;5054104;28;20025;-70
2022/11/23 03:43:00;;;;;;;63.15;26.83;;;;;;;1.97;72.17;97363.25;5052930;28;20028;-69
2022/11/23 03:45:25;;;;;;;66.18;29.00;;;;;;;1.96;71.86;97366.25;5051100;28;20021;-69
2022/11/23 03:47:51;;;;;;;64.65;27.55;;;;;;;1.93;71.86;97360.28;5051326;28;20037;-68
2022/11/23 03:50:16;;;;;;;69.45;30.10;;;;;;;1.92;72.18;97366.78;5053054;28;20095;-69
2022/11/23 03:52:42;;;;;;;68.45;28.67;;;;;;;1.91;72.13;97361.63;5048279;28;20033;-68
2022/11/23 03:55:07;;;;;;;77.70;31.38;;;;;;;1.87;71.90;97355.94;5051678;28;20029;-69
2022/11/23 03:57:33;;;;;;;70.88;30.17;;;;;;;1.86;72.57;97367.00;5051847;28;20178;-69
2022/11/23 03:59:58;;;;;;;69.65;28.73;;;;;;;1.84;72.04;97370.00;5046538;28;20028;-69
2022/11/23 04:02:24;;;;;;;54.28;25.05;;;;;;;1.82;72.28;97363.25;5048426;28;20021;-69
2022/11/23 04:04:49;;;;;;;51.50;25.17;;;;;;;1.81;72.16;97364.31;5050306;28;20140;-69
2022/11/23 04:07:14;;;;;;;46.78;22.63;;;;;;;1.80;71.95;97368.09;5052518;28;20028;-69
2022/11/23 04:09:40;;;;;;;48.63;23.33;;;;;;;1.80;72.08;97365.41;5049740;28;20040;-68
2022/11/23 04:12:06;;;;;;;44.80;23.23;;;;;;;1.79;72.08;97369.97;5052269;28;20504;-69
2022/11/23 04:14:31;;;;;;;46.47;23.17;;;;;;;1.78;71.91;97365.66;5047479;28;20031;-69
2022/11/23 04:16:57;;;;;;;48.85;21.88;;;;;;;1.73;71.94;97366.44;5051878;28;20393;-69
2022/11/23 04:19:22;;;;;;;47.30;22.77;;;;;;;1.68;72.38;97358.31;5049003;28;20029;-69
2022/11/23 04:21:48;;;;;;;46.00;22.77;;;;;;;1.67;72.57;97353.16;5049627;28;20473;-69
2022/11/23 04:24:13;;;;;;;48.33;24.00;;;;;;;1.65;72.30;97353.44;5051471;28;20105;-69
2022/11/23 04:26:39;;;;;;;45.20;21.65;;;;;;;1.62;72.50;97357.50;5052146;28;20055;-69
2022/11/23 04:29:05;;;;;;;48.88;24.60;;;;;;;1.60;72.75;97364.22;5050940;28;20029;-69
2022/11/23 04:31:30;;;;;;;49.00;23.00;;;;;;;1.57;71.91;97364.75;5051246;28;20040;-69
2022/11/23 04:33:56;;;;;;;44.05;23.05;;;;;;;1.52;72.56;97364.75;5051486;28;20029;-69
2022/11/23 04:36:21;;;;;;;51.58;22.98;;;;;;;1.47;72.74;97360.13;5050948;28;20032;-69
2022/11/23 04:38:47;;;;;;;50.28;23.90;;;;;;;1.45;72.78;97370.41;5051413;28;20025;-69
2022/11/23 04:41:12;;;;;;;51.45;23.90;;;;;;;1.41;72.56;97372.00;5050838;28;20480;-69
2022/11/23 04:43:37;;;;;;;49.85;24.55;;;;;;;1.39;72.26;97366.88;5049049;28;20025;-69
2022/11/23 04:46:03;;;;;;;48.95;23.25;;;;;;;1.38;72.37;97375.22;5051359;28;20071;-69
2022/11/23 04:48:28;;;;;;;47.78;23.17;;;;;;;1.34;72.46;97373.03;5048460;28;20041;-69
2022/11/23 04:50:54;;;;;;;47.63;23.02;;;;;;;1.32;72.13;97367.09;5051552;28;20043;-69
2022/11/23 04:53:19;;;;;;;50.63;23.52;;;;;;;1.31;72.73;97380.88;5050824;28;20033;-69
2022/11/23 04:55:46;;;;;;;51.47;24.15;;;;;;;1.30;72.83;97387.34;5050897;28;20424;-69
2022/11/23 04:58:11;;;;;;;52.50;24.25;;;;;;;1.31;72.90;97384.38;5050671;28;20033;-69
2022/11/23 05:00:37;;;;;;;47.92;23.52;;;;;;;1.34;72.75;97378.44;5050627;28;20469;-68
2022/11/23 05:03:02;;;;;;;51.58;23.77;;;;;;;1.38;73.11;97381.44;5051460;28;20404;-69
2022/11/23 05:05:28;;;;;;;55.95;26.00;;;;;;;1.41;73.33;97369.28;5049526;28;20079;-69
2022/11/23 05:07:54;;;;;;;51.83;24.13;;;;;;;1.44;72.85;97374.16;5048641;28;20026;-69
2022/11/23 05:10:19;;;;;;;52.15;24.65;;;;;;;1.48;73.33;97369.88;5048598;28;20029;-69
2022/11/23 05:12:44;;;;;;;50.78;24.05;;;;;;;1.52;72.50;97383.66;5050637;28;20063;-69
2022/11/23 05:15:13;;;;;;;55.97;25.90;;;;;;;1.54;72.78;97382.34;5049853;28;20112;-69
2022/11/23 05:17:38;;;;;;;55.47;26.40;;;;;;;1.57;72.80;97384.50;5044896;28;20827;-69
2022/11/23 05:20:04;;;;;;;53.25;26.33;;;;;;;1.58;72.79;97378.03;5050042;28;20135;-69
2022/11/23 05:22:30;;;;;;;54.05;24.83;;;;;;;1.59;73.32;97373.41;5051347;28;20024;-69
2022/11/23 05:24:55;;;;;;;53.38;25.02;;;;;;;1.61;73.05;97384.78;5049733;28;20025;-69
2022/11/23 05:27:20;;;;;;;52.75;24.73;;;;;;;1.60;72.34;97364.22;5050187;28;20029;-70
2022/11/23 05:29:46;;;;;;;53.00;25.90;;;;;;;1.61;72.55;97368.56;5050088;28;20040;-70
2022/11/23 05:32:11;;;;;;;55.75;26.80;;;;;;;1.65;72.77;97369.66;5046990;28;20059;-70
2022/11/23 05:34:38;;;;;;;59.40;29.77;;;;;;;1.66;73.43;97371.28;5049854;28;20025;-71
2022/11/23 05:37:03;;;;;;;58.55;27.98;;;;;;;1.65;73.18;97364.25;5048546;28;20448;-70
2022/11/23 05:39:28;;;;;;;52.90;25.65;;;;;;;1.67;72.83;97375.63;5049671;28;20036;-70
2022/11/23 05:41:54;;;;;;;60.10;26.77;;;;;;;1.68;72.73;97374.53;5049915;28;20020;-69
2022/11/23 05:44:19;;;;;;;80.30;32.22;;;;;;;1.68;72.44;97366.44;5049939;28;20485;-69
2022/11/23 05:46:45;;;;;;;408.50;152.93;;;;;;;1.67;72.57;97372.09;5050543;28;20116;-70
2022/11/23 05:49:10;;;;;;;84.75;33.65;;;;;;;1.67;73.02;97378.31;5047519;28;20384;-71
2022/11/23 05:51:35;;;;;;;61.92;26.60;;;;;;;1.66;73.15;97375.88;5050438;28;20036;-70
2022/11/23 05:54:02;;;;;;;61.88;27.30;;;;;;;1.67;72.62;97369.38;5049393;28;20451;-70
2022/11/23 05:56:28;;;;;;;54.92;25.00;;;;;;;1.64;72.53;97371.53;5050012;28;20039;-70
2022/11/23 05:58:56;;;;;;;90.90;32.17;;;;;;;1.63;72.89;97377.22;5049438;28;20111;-70
2022/11/23 06:01:21;;;;;;;106.50;34.38;;;;;;;1.63;73.12;97380.72;5049526;28;20033;-70
2022/11/23 06:03:49;;;;;;;74.93;27.38;;;;;;;1.61;72.88;97388.31;5048798;28;20392;-69
2022/11/23 06:06:14;;;;;;;58.15;24.08;;;;;;;1.62;72.92;97386.41;5052445;28;20035;-70
2022/11/23 06:08:40;;;;;;;46.47;21.50;;;;;;;1.61;72.34;97392.88;5047913;28;20030;-70
2022/11/23 06:11:05;;;;;;;48.30;22.65;;;;;;;1.61;72.59;97388.31;5049676;28;20102;-70
2022/11/23 06:13:30;;;;;;;64.50;26.08;;;;;;;1.66;72.46;97394.78;5049632;28;20061;-71
2022/11/23 06:15:56;;;;;;;75.90;28.60;;;;;;;1.65;72.81;97394.00;5051378;28;20029;-70
2022/11/23 06:18:21;;;;;;;71.95;28.10;;;;;;;1.69;72.81;97397.78;5049400;28;20358;-70
2022/11/23 06:20:47;;;;;;;71.65;27.55;;;;;;;1.70;72.93;97399.41;5049665;28;20039;-69
2022/11/23 06:23:12;;;;;;;56.08;23.60;;;;;;;1.71;72.74;97392.09;5047204;28;20079;-70
2022/11/23 06:25:38;;;;;;;51.92;23.70;;;;;;;1.72;72.57;97401.84;5049559;28;20040;-70
2022/11/23 06:28:03;;;;;;;50.63;22.10;;;;;;;1.70;72.94;97412.94;5046498;28;20078;-70
2022/11/23 06:30:29;;;;;;;47.70;21.95;;;;;;;1.70;72.50;97412.94;5048350;28;20063;-70
2022/11/23 06:32:55;;;;;;;44.47;21.65;;;;;;;1.71;73.02;97414.56;5049610;28;20029;-70
2022/11/23 06:35:20;;;;;;;47.00;21.77;;;;;;;1.69;72.88;97410.47;5046217;28;20857;-70
2022/11/23 06:37:50;;;;;;;47.33;21.33;;;;;;;1.68;72.62;97420.50;5049893;28;20082;-70
2022/11/23 06:40:16;;;;;;;48.90;21.88;;;;;;;1.68;73.12;97417.78;5049250;28;20032;-70
2022/11/23 06:42:42;;;;;;;49.95;22.27;;;;;;;1.70;72.93;97409.41;5047028;28;20021;-70
2022/11/23 06:45:08;;;;;;;54.33;23.00;;;;;;;1.70;72.58;97410.22;5049058;28;20025;-69
2022/11/23 06:47:34;;;;;;;48.33;22.50;;;;;;;1.72;73.02;97412.66;5049032;28;20029;-70
2022/11/23 06:49:59;;;;;;;56.63;23.70;;;;;;;1.73;72.44;97409.69;5048823;28;20048;-70
2022/11/23 06:52:24;;;;;;;60.42;24.42;;;;;;;1.77;73.24;97407.28;5049887;28;20032;-70
2022/11/23 06:54:50;;;;;;;48.80;20.77;;;;;;;1.77;72.64;97410.81;5049260;28;20385;-69
2022/11/23 06:57:15;;;;;;;46.30;20.67;;;;;;;1.79;72.92;97413.22;5050493;28;20025;-71
2022/11/23 06:59:41;;;;;;;50.75;22.05;;;;;;;1.81;73.04;97412.97;5051618;28;20111;-71
2022/11/23 07:02:06;;;;;;;52.53;22.67;;;;;;;1.82;73.41;97406.50;5044016;28;20448;-71
2022/11/23 07:04:31;;;;;;;56.33;24.20;;;;;;;1.83;72.81;97413.53;5049895;28;20033;-70
2022/11/23 07:06:57;;;;;;;50.55;22.05;;;;;;;1.87;73.08;97415.44;5054017;28;20029;-71
2022/11/23 07:09:22;;;;;;;48.72;22.33;;;;;;;1.89;73.49;97409.75;5053689;28;20119;-69
2022/11/23 07:11:48;;;;;;;55.28;24.38;;;;;;;1.90;73.33;97412.19;5052276;28;20757;-71
2022/11/23 07:14:13;;;;;;;57.60;24.15;;;;;;;1.92;72.95;97423.56;5050945;28;20053;-72
2022/11/23 07:16:38;;;;;;;51.63;23.75;;;;;;;1.96;73.34;97417.63;5051705;28;20072;-72
2022/11/23 07:19:04;;;;;;;57.08;23.88;;;;;;;1.97;72.88;97420.06;5051459;28;20111;-72
2022/11/23 07:21:29;;;;;;;69.60;27.75;;;;;;;2.00;73.04;97421.44;5052328;28;20413;-71
2022/11/23 07:23:54;;;;;;;72.70;27.15;;;;;;;2.04;73.24;97419.78;5053937;28;20056;-71
2022/11/23 07:26:20;;;;;;;66.63;27.27;;;;;;;2.08;73.12;97429.00;5052068;28;20036;-71
2022/11/23 07:28:45;;;;;;;79.60;31.10;;;;;;;2.12;72.87;97426.59;5052308;28;20037;-71
2022/11/23 07:31:14;;;;;;;83.88;33.45;;;;;;;2.15;73.14;97426.06;5049428;28;20781;-70
2022/11/23 07:33:42;;;;;;;91.63;35.88;;;;;;;2.19;72.81;97429.88;5052504;28;20096;-71
2022/11/23 07:36:08;;;;;;;94.72;36.28;;;;;;;2.23;72.75;97428.25;5048144;28;20127;-73
2022/11/23 07:38:33;;;;;;;96.30;35.10;;;;;;;2.26;73.50;97421.47;5053939;28;20111;-72
2022/11/23 07:41:00;;;;;;;88.00;33.42;;;;;;;2.28;72.85;97427.44;5052987;28;20024;-72
2022/11/23 07:43:26;;;;;;;89.75;33.42;;;;;;;2.29;72.70;97426.34;5051876;28;20032;-72
2022/11/23 07:45:55;;;;;;;110.80;39.22;;;;;;;2.31;73.32;97426.91;5054476;28;20036;-72
2022/11/23 07:48:20;;;;;;;80.32;31.90;;;;;;;2.32;73.39;97437.44;5050735;28;20103;-73
2022/11/23 07:50:45;;;;;;;60.63;27.15;;;;;;;2.35;73.29;97436.91;5050720;28;20037;-73
2022/11/23 07:53:11;;;;;;;60.55;26.70;;;;;;;2.36;73.08;97443.94;5050239;28;20037;-73
2022/11/23 07:55:36;;;;;;;71.75;30.42;;;;;;;2.35;73.29;97442.31;5051040;28;20428;-72
2022/11/23 07:58:02;;;;;;;57.33;24.33;;;;;;;2.35;73.49;97449.66;5050699;28;20009;-72
2022/11/23 08:00:28;;;;;;;52.92;25.17;;;;;;;2.35;72.72;97457.75;5050340;28;20389;-73
2022/11/23 08:02:53;;;;;;;50.92;23.98;;;;;;;2.35;73.31;97455.06;5051430;28;20033;-72
2022/11/23 08:05:19;;;;;;;46.63;23.50;;;;;;;2.36;72.73;97459.38;5053232;28;20083;-72
2022/11/23 08:07:44;;;;;;;50.30;24.15;;;;;;;2.36;73.61;97456.69;5050821;28;20493;-72
2022/11/23 08:10:11;;;;;;;65.32;28.58;;;;;;;2.40;73.00;97451.53;5049370;28;20033;-73
2022/11/23 08:12:37;;;;;;;59.25;27.08;;;;;;;2.41;72.94;97450.47;5052028;28;20044;-73
2022/11/23 08:15:03;;;;;;;55.92;25.38;;;;;;;2.43;73.15;97449.13;5051396;28;20394;-72
2022/11/23 08:17:28;;;;;;;66.85;28.98;;;;;;;2.47;72.74;97439.34;5051343;28;20055;-73
2022/11/23 08:19:54;;;;;;;65.50;28.15;;;;;;;2.49;73.66;97442.63;5050217;28;20056;-72
2022/11/23 08:22:19;;;;;;;65.63;28.60;;;;;;;2.51;73.32;97434.25;5050424;28;20123;-71
2022/11/23 08:24:45;;;;;;;74.22;31.80;;;;;;;2.54;72.99;97433.69;5049585;28;20028;-72
2022/11/23 08:27:10;;;;;;;58.92;25.85;;;;;;;2.56;72.68;97436.97;5051364;28;20029;-73
2022/11/23 08:29:35;;;;;;;50.05;23.10;;;;;;;2.58;73.17;97425.84;5050026;28;20017;-73
2022/11/23 08:32:01;;;;;;;60.05;27.02;;;;;;;2.60;72.80;97429.09;5048062;28;20037;-74
2022/11/23 08:34:26;;;;;;;68.88;29.85;;;;;;;2.62;72.99;97422.34;5048718;28;20024;-74
2022/11/23 08:36:51;;;;;;;55.72;27.48;;;;;;;2.64;72.99;97431.00;5049583;28;20108;-74
2022/11/23 08:39:18;;;;;;;49.88;25.33;;;;;;;2.67;72.71;97426.94;5047687;28;20063;-75
2022/11/23 08:41:43;;;;;;;49.70;23.83;;;;;;;2.70;73.33;97434.53;5050764;28;20477;-73
2022/11/23 08:44:10;;;;;;;53.78;25.63;;;;;;;2.73;72.82;97430.44;5048814;28;20036;-72
2022/11/23 08:46:35;;;;;;;58.08;25.85;;;;;;;2.75;73.01;97429.13;5051114;28;20035;-71
2022/11/23 08:49:01;;;;;;;50.08;24.35;;;;;;;2.79;72.83;97423.97;5050054;28;20029;-71
2022/11/23 08:51:27;;;;;;;51.35;25.33;;;;;;;2.81;73.72;97428.03;5046489;28;20045;-71
2022/11/23 08:53:52;;;;;;;50.80;26.02;;;;;;;2.86;72.83;97427.22;5047458;28;20176;-72
2022/11/23 08:56:18;;;;;;;55.15;27.55;;;;;;;2.91;73.03;97427.22;5046216;28;20062;-69
2022/11/23 08:58:43;;;;;;;50.58;24.77;;;;;;;2.97;72.94;97425.31;5047297;28;20080;-72
2022/11/23 09:01:10;;;;;;;56.47;27.05;;;;;;;3.01;73.72;97423.69;5049111;28;20028;-70
2022/11/23 09:03:35;;;;;;;51.58;25.65;;;;;;;3.04;72.94;97425.03;5049634;28;20166;-70
2022/11/23 09:06:01;;;;;;;53.13;25.88;;;;;;;3.05;73.37;97415.84;5049490;28;20111;-70
2022/11/23 09:08:27;;;;;;;58.13;27.88;;;;;;;3.06;72.75;97403.88;5049702;28;20029;-68
2022/11/23 09:10:53;;;;;;;55.22;26.30;;;;;;;3.11;73.07;97414.72;5049769;28;20166;-69
2022/11/23 09:13:18;;;;;;;56.58;26.92;;;;;;;3.11;72.84;97407.41;5049259;28;20502;-68
2022/11/23 09:15:44;;;;;;;64.03;27.83;;;;;;;3.16;73.25;97405.78;5047281;28;20035;-69
2022/11/23 09:18:10;;;;;;;62.45;28.63;;;;;;;3.17;73.37;97407.41;5049993;28;20118;-69
2022/11/23 09:20:35;;;;;;;52.63;25.65;;;;;;;3.21;73.52;97400.38;5031832;28;20028;-68
2022/11/23 09:23:01;;;;;;;64.00;28.23;;;;;;;3.22;73.09;97402.78;5050118;28;20032;-69
2022/11/23 09:25:26;;;;;;;214.40;75.05;;;;;;;3.24;73.17;97402.53;5049653;28;20028;-69
2022/11/23 09:27:59;;;;;;;226.13;89.47;;;;;;;3.27;73.29;97418.22;5049959;28;20440;-68
2022/11/23 09:30:26;;;;;;;156.48;75.80;;;;;;;3.26;73.00;97420.13;5050938;28;20039;-67
2022/11/23 09:32:54;;;;;;;192.98;86.82;;;;;;;3.25;72.92;97410.38;5046144;28;20041;-68
2022/11/23 09:35:20;;;;;;;125.28;45.90;;;;;;;3.27;72.73;97415.50;5047134;28;20183;-68
2022/11/23 09:37:45;;;;;;;64.22;29.27;;;;;;;3.28;72.64;97415.25;5050942;28;20115;-69
2022/11/23 09:40:18;;;;;;;58.28;27.52;;;;;;;3.31;73.19;97413.88;5049204;28;20040;-68
2022/11/23 09:43:02;;;;;;;83.82;32.67;;;;;;;3.33;73.19;97411.69;5050173;28;20033;-69
2022/11/23 09:45:33;;;;;;;52.42;25.67;;;;;;;3.36;72.58;97413.06;5045631;28;20052;-69
2022/11/23 09:48:12;;;;;;;52.88;25.23;;;;;;;3.35;72.70;97408.72;5051358;28;20033;-69
2022/11/23 09:50:43;;;;;;;57.60;27.57;;;;;;;3.40;73.06;97416.84;5044965;28;20268;-70
2022/11/23 09:53:14;;;;;;;57.92;27.27;;;;;;;3.45;73.03;97402.47;5046956;28;20458;-68
2022/11/23 09:55:45;;;;;;;53.15;25.48;;;;;;;3.48;72.73;97399.19;5045667;28;20051;-69
2022/11/23 09:58:20;;;;;;;52.60;26.55;;;;;;;3.54;72.73;97395.38;5050989;28;20059;-69
2022/11/23 10:01:03;;;;;;;52.80;26.20;;;;;;;3.57;72.86;97392.94;5043857;28;20055;-69
2022/11/23 10:03:34;;;;;;;50.72;24.25;;;;;;;3.64;73.31;97383.69;5045854;28;20035;-70
2022/11/23 10:06:24;;;;;;;66.20;30.42;;;;;;;3.66;72.81;97381.50;5049574;28;20289;-70
2022/11/23 10:09:21;;;;;;;48.78;23.35;;;;;;;3.69;73.10;97373.63;5045937;28;20792;-70
2022/11/23 10:12:05;;;;;;;49.65;24.48;;;;;;;3.75;73.03;97371.72;5048872;28;20036;-70
2022/11/23 10:14:30;;;;;;;81.43;37.45;;;;;;;3.79;72.43;97366.53;5049133;28;20076;-70
2022/11/23 10:17:12;;;;;;;77.78;36.35;;;;;;;3.84;72.70;97363.81;5049700;28;20064;-70
2022/11/23 10:19:56;;;;;;;61.38;30.30;;;;;;;3.88;72.91;97354.81;5049981;28;20025;-70
2022/11/23 10:22:29;;;;;;;63.55;31.58;;;;;;;3.96;72.39;97352.59;5049906;28;20040;-70
2022/11/23 10:24:55;;;;;;;72.88;34.83;;;;;;;4.00;72.84;97351.78;5049363;28;20028;-70
2022/11/23 10:27:22;;;;;;;74.32;36.08;;;;;;;4.04;72.28;97352.03;5050174;28;20029;-70
2022/11/23 10:29:51;;;;;;;68.13;33.15;;;;;;;4.06;72.65;97359.91;5042109;28;20456;-71
2022/11/23 10:32:38;;;;;;;61.78;28.42;;;;;;;4.08;72.97;97357.69;5050567;28;20477;-71
2022/11/23 10:35:13;;;;;;;51.33;26.25;;;;;;;4.08;73.00;97355.78;5047299;28;20469;-69
2022/11/23 10:37:39;;;;;;;58.80;28.27;;;;;;;4.09;72.63;97345.75;5049626;28;20025;-70
2022/11/23 10:40:25;;;;;;;61.00;30.92;;;;;;;4.09;72.61;97349.28;5050125;28;20021;-70
2022/11/23 10:42:55;;;;;;;61.67;32.22;;;;;;;4.11;72.17;97347.09;5054048;28;20116;-70
2022/11/23 10:45:26;;;;;;;63.45;33.15;;;;;;;4.13;72.34;97347.63;5052641;28;20388;-70
2022/11/23 10:47:57;;;;;;;55.90;28.67;;;;;;;4.14;72.49;97340.28;5053408;28;20036;-70
2022/11/23 10:50:29;;;;;;;57.58;29.48;;;;;;;4.14;72.21;97343.00;5052108;28;20110;-70
2022/11/23 10:53:21;;;;;;;70.25;35.95;;;;;;;4.13;72.58;97333.22;5051067;28;20496;-70
2022/11/23 10:55:58;;;;;;;56.42;28.10;;;;;;;4.16;72.13;97341.63;5052863;28;20013;-70
2022/11/23 10:58:30;;;;;;;58.70;31.10;;;;;;;4.20;72.13;97336.44;5052885;28;20021;-70
2022/11/23 11:01:11;;;;;;;54.25;27.55;;;;;;;4.20;72.54;97330.22;5051001;28;20481;-70
2022/11/23 11:03:36;;;;;;;59.92;31.70;;;;;;;4.24;71.88;97336.72;5053119;28;20063;-71
2022/11/23 11:06:02;;;;;;;60.15;30.95;;;;;;;4.26;71.93;97329.09;5053885;28;20101;-70
2022/11/23 11:08:32;;;;;;;64.20;32.88;;;;;;;4.30;72.16;97332.84;5053714;28;20048;-70
2022/11/23 11:11:19;;;;;;;57.17;30.63;;;;;;;4.33;72.05;97329.56;5050911;28;20104;-70
2022/11/23 11:13:47;;;;;;;54.88;30.20;;;;;;;4.40;72.78;97321.91;5056282;28;20039;-70
2022/11/23 11:16:29;;;;;;;54.58;28.20;;;;;;;4.49;72.35;97324.03;5054107;28;20344;-70
2022/11/23 11:18:55;;;;;;;46.85;25.40;;;;;;;4.55;72.01;97328.31;5051594;28;20469;-70
2022/11/23 11:21:32;;;;;;;46.20;24.65;;;;;;;4.56;72.40;97321.78;5049629;28;20067;-70
2022/11/23 11:24:02;;;;;;;43.30;22.90;;;;;;;4.57;71.58;97324.22;5050903;28;20017;-69
2022/11/23 11:26:30;;;;;;;39.88;23.25;;;;;;;4.60;71.93;97323.66;5051292;28;20104;-70